MMVR/VER METAR and TAF weather

Enter ICAO airport designator
Station Type Date Time Source
MMVR METAR 2021/09/20 03:43 UTC NOAA

MMVR 200343Z 00000KT 7SM SKC 26/25 A2995 RMK HZY


Station Type Date Time Source
MMVR Decoded METAR 2021/09/20 03:43 UTC NOAA

Veracruz / Las Bajadas / General Heriberto Jara, Mexico (MMVR) 19-09N 096-11W
Sep 19, 2021 - 11:43 PM EDT / 2021.09.20 0343 UTC
Wind: Calm:0
Visibility: 7 mile(s):0
Sky conditions: clear
Temperature: 78 F (26 C)
Dew Point: 77 F (25 C)
Relative Humidity: 94%
Pressure (altimeter): 29.95 in. Hg (1014 hPa)
ob: MMVR 200343Z 00000KT 7SM SKC 26/25 A2995 RMK HZY
cycle: 3

Station Type Date Time Source
MMVR TAF 2021/09/20 06:21 UTC NOAA

TAF MMVR 200414Z 2006/2106 00000KT P6SM SCT010 TX30/2019Z TN24/2012Z
TEMPO 2011/2015 4SM HZ BKN010
FM201800 04010KT P6SM SCT012 SCT080 BKN250
FM210500 00000KT P6SM SCT012 SCT250

Example: see airport list